createdAt,value
2018-12-25T00:02:13.399Z,15.40
2018-12-25T00:04:39.830Z,15.40
2018-12-25T00:07:06.023Z,15.40
2018-12-25T00:09:32.211Z,15.30
2018-12-25T00:11:58.471Z,15.30
2018-12-25T00:14:24.675Z,15.30
2018-12-25T00:16:50.887Z,15.30
2018-12-25T00:19:17.087Z,15.20
2018-12-25T00:21:44.042Z,15.10
2018-12-25T00:24:10.246Z,15.10
2018-12-25T00:26:36.437Z,15.10
2018-12-25T00:29:02.677Z,15.10
2018-12-25T00:31:28.889Z,15.10
2018-12-25T00:33:55.111Z,15.10
2018-12-25T00:36:21.295Z,15.10
2018-12-25T00:38:48.634Z,15.10
2018-12-25T00:41:14.832Z,15.10
2018-12-25T00:43:41.032Z,15.10
2018-12-25T00:46:07.238Z,15.10
2018-12-25T00:48:34.220Z,15.10
2018-12-25T00:51:00.426Z,15.10
2018-12-25T00:53:26.986Z,15.00
2018-12-25T00:55:53.255Z,15.00
2018-12-25T00:58:20.957Z,15.00
2018-12-25T01:00:47.149Z,15.00
2018-12-25T01:03:13.359Z,15.00
2018-12-25T01:05:39.603Z,14.90
2018-12-25T01:08:05.775Z,15.00
2018-12-25T01:10:31.969Z,15.00
2018-12-25T01:12:58.935Z,15.10
2018-12-25T01:15:25.128Z,15.00
2018-12-25T01:17:51.320Z,15.10
2018-12-25T01:20:17.614Z,15.10
2018-12-25T01:22:43.822Z,15.00
2018-12-25T01:25:10.071Z,15.10
2018-12-25T01:27:36.284Z,15.10
2018-12-25T01:30:02.466Z,15.10
2018-12-25T01:32:28.669Z,15.10
2018-12-25T01:34:54.861Z,15.10
2018-12-25T01:37:21.062Z,15.00
2018-12-25T01:39:47.278Z,15.10
2018-12-25T01:42:13.507Z,15.10
2018-12-25T01:44:39.689Z,15.10
2018-12-25T01:47:05.918Z,15.10
2018-12-25T01:49:32.363Z,15.00
2018-12-25T01:51:58.552Z,15.00
2018-12-25T01:54:24.771Z,15.00
2018-12-25T01:56:52.479Z,15.00
2018-12-25T01:59:18.676Z,15.00
2018-12-25T02:01:44.874Z,15.00
2018-12-25T02:04:11.155Z,15.00
2018-12-25T02:06:37.331Z,15.00
2018-12-25T02:09:03.515Z,15.00
2018-12-25T02:11:29.709Z,14.90
2018-12-25T02:13:55.928Z,14.90
2018-12-25T02:16:22.174Z,14.90
2018-12-25T02:18:49.123Z,14.90
2018-12-25T02:21:15.358Z,14.90
2018-12-25T02:23:41.571Z,15.00
2018-12-25T02:26:07.764Z,15.00
2018-12-25T02:28:33.970Z,15.00
2018-12-25T02:31:00.163Z,15.00
2018-12-25T02:33:27.150Z,15.10
2018-12-25T02:35:53.324Z,15.00
2018-12-25T02:38:20.256Z,15.00
2018-12-25T02:40:46.467Z,15.00
2018-12-25T02:43:12.866Z,15.00
2018-12-25T02:45:39.112Z,15.00
2018-12-25T02:48:05.321Z,15.00
2018-12-25T02:50:31.515Z,15.00
2018-12-25T02:52:57.747Z,15.00
2018-12-25T02:55:23.940Z,15.00
2018-12-25T02:57:50.136Z,15.00
2018-12-25T03:00:16.371Z,15.00
2018-12-25T03:02:42.670Z,15.00
2018-12-25T03:05:09.929Z,15.00
2018-12-25T03:07:36.110Z,15.00
2018-12-25T03:10:02.312Z,15.00
2018-12-25T03:12:28.552Z,15.00
2018-12-25T03:14:54.768Z,14.90
2018-12-25T03:17:21.006Z,14.90
2018-12-25T03:19:47.302Z,14.90
2018-12-25T03:22:14.388Z,14.90
2018-12-25T03:24:40.606Z,14.90
2018-12-25T03:27:06.823Z,14.80
2018-12-25T03:29:33.051Z,14.80
2018-12-25T03:31:59.269Z,14.70
2018-12-25T03:34:25.455Z,14.70
2018-12-25T03:36:53.173Z,14.60
2018-12-25T03:39:19.359Z,14.70
2018-12-25T03:41:45.573Z,14.60
2018-12-25T03:44:12.653Z,14.70
2018-12-25T03:46:38.884Z,14.70
2018-12-25T03:49:05.093Z,14.70
2018-12-25T03:51:31.296Z,14.70
2018-12-25T03:53:57.484Z,14.80
2018-12-25T03:56:23.692Z,14.70
2018-12-25T03:58:49.897Z,14.70
2018-12-25T04:01:16.851Z,14.80
2018-12-25T04:03:43.093Z,14.70
2018-12-25T04:06:09.273Z,14.80
2018-12-25T04:08:35.516Z,14.80
2018-12-25T04:11:01.712Z,14.70
2018-12-25T04:13:27.925Z,14.60
2018-12-25T04:15:54.102Z,14.60
2018-12-25T04:18:20.327Z,14.60
2018-12-25T04:20:46.506Z,14.60
2018-12-25T04:23:12.715Z,14.70
2018-12-25T04:25:38.919Z,14.70
2018-12-25T04:28:05.096Z,14.70
2018-12-25T04:30:31.288Z,14.60
2018-12-25T04:32:57.626Z,14.60
2018-12-25T04:35:23.823Z,14.50
2018-12-25T04:37:50.773Z,14.50
2018-12-25T04:40:17.026Z,14.50
2018-12-25T04:42:43.369Z,14.50
2018-12-25T04:45:09.792Z,14.50
2018-12-25T04:47:35.969Z,14.40
2018-12-25T04:50:02.167Z,14.40
2018-12-25T04:52:28.347Z,14.40
2018-12-25T04:54:54.572Z,14.40
2018-12-25T04:57:20.931Z,14.40
2018-12-25T04:59:47.099Z,14.40
2018-12-25T05:02:14.055Z,14.40
2018-12-25T05:04:40.248Z,14.40
2018-12-25T05:07:06.432Z,14.40
2018-12-25T05:09:33.296Z,14.40
2018-12-25T05:11:59.515Z,14.40
2018-12-25T05:14:25.695Z,14.50
2018-12-25T05:16:51.893Z,14.40
2018-12-25T05:19:18.157Z,14.30
2018-12-25T05:21:44.394Z,14.40
2018-12-25T05:24:11.433Z,14.50
2018-12-25T05:26:37.651Z,14.50
2018-12-25T05:29:03.858Z,14.50
2018-12-25T05:31:30.071Z,14.50
2018-12-25T05:33:56.401Z,14.50
2018-12-25T05:36:22.635Z,14.60
2018-12-25T05:38:48.852Z,14.60
2018-12-25T05:41:15.046Z,14.60
2018-12-25T05:43:42.016Z,14.60
2018-12-25T05:46:09.180Z,14.60
2018-12-25T05:48:35.383Z,14.60
2018-12-25T05:51:01.578Z,14.50
2018-12-25T05:53:28.538Z,14.50
2018-12-25T05:55:54.739Z,14.50
2018-12-25T05:58:20.958Z,14.50
2018-12-25T06:00:47.144Z,14.50
2018-12-25T06:03:13.361Z,14.60
2018-12-25T06:05:39.585Z,14.50
2018-12-25T06:08:05.821Z,14.60
2018-12-25T06:10:32.029Z,14.60
2018-12-25T06:12:58.236Z,14.60
2018-12-25T06:15:25.170Z,14.70
2018-12-25T06:17:51.363Z,14.60
2018-12-25T06:20:17.557Z,14.60
2018-12-25T06:22:43.749Z,14.50
2018-12-25T06:25:09.954Z,14.50
2018-12-25T06:27:37.345Z,14.60
2018-12-25T06:30:03.745Z,14.60
2018-12-25T06:32:29.959Z,14.60
2018-12-25T06:34:56.139Z,14.60
2018-12-25T06:37:22.338Z,14.60
2018-12-25T06:39:48.542Z,14.60
2018-12-25T06:42:15.494Z,14.70
2018-12-25T06:44:41.735Z,14.60
2018-12-25T06:47:07.924Z,14.70
2018-12-25T06:49:35.622Z,14.70
2018-12-25T06:52:01.825Z,14.70
2018-12-25T06:54:28.030Z,14.70
2018-12-25T06:56:55.126Z,14.60
2018-12-25T06:59:21.359Z,14.60
2018-12-25T07:01:47.549Z,14.60
2018-12-25T07:04:14.787Z,14.70
2018-12-25T07:06:42.492Z,14.70
2018-12-25T07:09:08.672Z,14.70
2018-12-25T07:11:34.895Z,14.70
2018-12-25T07:14:01.226Z,14.70
2018-12-25T07:16:27.416Z,14.70
2018-12-25T07:18:53.587Z,14.60
2018-12-25T07:21:19.861Z,14.60
2018-12-25T07:23:46.481Z,14.60
2018-12-25T07:26:12.679Z,14.60
2018-12-25T07:28:40.379Z,14.60
2018-12-25T07:31:06.588Z,14.60
2018-12-25T07:33:32.785Z,14.60
2018-12-25T07:35:58.979Z,14.60
2018-12-25T07:38:25.198Z,14.50
2018-12-25T07:40:51.528Z,14.50
2018-12-25T07:43:17.707Z,14.50
2018-12-25T07:45:43.895Z,14.50
2018-12-25T07:48:10.158Z,14.50
2018-12-25T07:50:36.364Z,14.60
2018-12-25T07:53:02.549Z,14.60
2018-12-25T07:55:29.520Z,14.60
2018-12-25T07:57:55.696Z,14.60
2018-12-25T08:00:21.893Z,14.60
2018-12-25T08:02:48.080Z,14.60
2018-12-25T08:05:15.058Z,14.60
2018-12-25T08:07:41.617Z,14.60
2018-12-25T08:10:07.827Z,14.60
2018-12-25T08:12:34.120Z,14.60
2018-12-25T08:15:00.319Z,14.60
2018-12-25T08:17:26.537Z,14.60
2018-12-25T08:19:52.716Z,14.60
2018-12-25T08:22:18.920Z,14.70
2018-12-25T08:24:45.887Z,14.70
2018-12-25T08:27:12.097Z,14.70
2018-12-25T08:29:38.287Z,14.70
2018-12-25T08:32:04.482Z,14.60
2018-12-25T08:34:30.674Z,14.50
2018-12-25T08:36:56.895Z,14.60
2018-12-25T08:39:23.094Z,14.60
2018-12-25T08:41:51.363Z,14.60
2018-12-25T08:44:15.730Z,14.50
2018-12-25T08:46:41.939Z,14.50
2018-12-25T08:49:08.109Z,14.50
2018-12-25T08:51:37.721Z,14.60
2018-12-25T08:54:00.526Z,14.60
2018-12-25T08:56:26.739Z,14.60
2018-12-25T08:58:53.703Z,14.60
2018-12-25T09:01:19.918Z,14.60
2018-12-25T09:03:46.134Z,14.60
2018-12-25T09:06:12.318Z,14.60
2018-12-25T09:08:38.525Z,14.60
2018-12-25T09:11:04.701Z,14.60
2018-12-25T09:13:30.923Z,14.60
2018-12-25T09:15:57.099Z,14.50
2018-12-25T09:18:23.979Z,14.50
2018-12-25T09:20:50.195Z,14.50
2018-12-25T09:23:16.399Z,14.40
2018-12-25T09:25:42.599Z,14.40
2018-12-25T09:28:08.813Z,14.40
2018-12-25T09:30:35.011Z,14.30
2018-12-25T09:33:01.306Z,14.40
2018-12-25T09:35:27.516Z,14.40
2018-12-25T09:37:53.728Z,14.30
2018-12-25T09:40:19.940Z,14.30
2018-12-25T09:42:46.123Z,14.20
2018-12-25T09:45:12.330Z,14.10
2018-12-25T09:47:39.484Z,14.10
2018-12-25T09:50:06.631Z,14.10
2018-12-25T09:52:33.577Z,14.00
2018-12-25T09:54:59.771Z,14.00
2018-12-25T09:57:27.482Z,13.90
2018-12-25T09:59:53.680Z,13.90
2018-12-25T10:02:20.595Z,13.90
2018-12-25T10:04:46.811Z,13.90
2018-12-25T10:07:12.999Z,13.90
2018-12-25T10:09:39.176Z,13.90
2018-12-25T10:12:05.458Z,13.90
2018-12-25T10:14:31.632Z,13.90
2018-12-25T10:16:57.839Z,13.80
2018-12-25T10:19:24.024Z,13.70
2018-12-25T10:21:50.991Z,13.90
2018-12-25T10:24:17.324Z,13.90
2018-12-25T10:26:43.457Z,14.00
2018-12-25T10:29:10.617Z,14.00
2018-12-25T10:31:36.802Z,14.00
2018-12-25T10:34:03.744Z,14.00
2018-12-25T10:36:29.939Z,14.00
2018-12-25T10:38:56.139Z,14.00
2018-12-25T10:41:22.344Z,14.10
2018-12-25T10:43:48.528Z,14.00
2018-12-25T10:46:14.735Z,14.00
2018-12-25T10:48:40.951Z,14.00
2018-12-25T10:51:07.373Z,14.00
2018-12-25T10:53:33.580Z,14.00
2018-12-25T10:55:59.831Z,14.00
2018-12-25T10:58:26.382Z,13.90
2018-12-25T11:00:52.595Z,13.90
2018-12-25T11:03:18.821Z,13.90
2018-12-25T11:05:45.091Z,14.00
2018-12-25T11:08:11.317Z,13.90
2018-12-25T11:10:37.516Z,13.90
2018-12-25T11:13:03.821Z,13.90
2018-12-25T11:15:30.031Z,13.90
2018-12-25T11:17:56.231Z,13.80
2018-12-25T11:20:22.448Z,13.70
2018-12-25T11:22:48.684Z,13.70
2018-12-25T11:25:15.166Z,13.70
2018-12-25T11:27:41.358Z,13.70
2018-12-25T11:30:08.311Z,13.80
2018-12-25T11:32:34.547Z,13.80
2018-12-25T11:35:01.501Z,13.90
2018-12-25T11:37:27.676Z,13.80
2018-12-25T11:39:53.930Z,13.90
2018-12-25T11:42:20.927Z,13.90
2018-12-25T11:44:47.157Z,13.90
2018-12-25T11:47:13.472Z,13.90
2018-12-25T11:49:39.690Z,14.00
2018-12-25T11:52:05.867Z,14.10
2018-12-25T11:54:32.075Z,14.20
2018-12-25T11:56:58.388Z,14.30
2018-12-25T11:59:24.621Z,14.40
2018-12-25T12:01:50.819Z,14.50
2018-12-25T12:04:17.037Z,14.60
2018-12-25T12:06:43.252Z,14.70
2018-12-25T12:09:09.436Z,14.80
2018-12-25T12:11:35.762Z,14.90
2018-12-25T12:14:01.966Z,15.00
2018-12-25T12:16:28.174Z,15.10
2018-12-25T12:18:54.379Z,15.10
2018-12-25T12:21:20.579Z,15.20
2018-12-25T12:23:46.776Z,15.20
2018-12-25T12:26:13.751Z,15.30
2018-12-25T12:28:39.947Z,15.30
2018-12-25T12:31:06.153Z,15.40
2018-12-25T12:33:32.367Z,15.50
2018-12-25T12:35:58.594Z,15.60
2018-12-25T12:38:24.878Z,15.60
2018-12-25T12:40:51.083Z,15.70
2018-12-25T12:43:17.348Z,15.70
2018-12-25T12:45:43.524Z,15.80
2018-12-25T12:48:09.713Z,15.80
2018-12-25T12:50:35.990Z,15.80
2018-12-25T12:53:02.995Z,15.80
2018-12-25T12:55:29.199Z,15.80
2018-12-25T12:57:55.405Z,15.90
2018-12-25T13:00:22.383Z,16.00
2018-12-25T13:02:48.583Z,15.90
2018-12-25T13:05:14.798Z,16.00
2018-12-25T13:07:40.983Z,16.00
2018-12-25T13:10:07.265Z,16.10
2018-12-25T13:12:33.475Z,16.10
2018-12-25T13:14:59.684Z,16.10
2018-12-25T13:17:25.890Z,16.20
2018-12-25T13:19:52.100Z,16.30
2018-12-25T13:22:18.308Z,16.30
2018-12-25T13:24:45.258Z,16.40
2018-12-25T13:27:12.002Z,16.30
2018-12-25T13:29:38.190Z,16.40
2018-12-25T13:32:04.416Z,16.40
2018-12-25T13:34:31.611Z,16.40
2018-12-25T13:36:57.820Z,16.50
2018-12-25T13:39:24.008Z,16.50
2018-12-25T13:41:50.206Z,16.60
2018-12-25T13:44:16.445Z,16.50
2018-12-25T13:46:51.332Z,16.60
2018-12-25T13:49:08.911Z,16.60
2018-12-25T13:51:35.485Z,16.60
2018-12-25T13:54:01.676Z,16.70
2018-12-25T13:56:27.871Z,16.70
2018-12-25T13:58:54.092Z,16.70
2018-12-25T14:01:20.280Z,16.80
2018-12-25T14:03:46.527Z,16.80
2018-12-25T14:06:12.772Z,16.80
2018-12-25T14:08:39.015Z,16.80
2018-12-25T14:11:05.224Z,16.80
2018-12-25T14:13:31.416Z,16.90
2018-12-25T14:15:57.622Z,16.90
2018-12-25T14:18:23.803Z,16.90
2018-12-25T14:20:50.754Z,16.90
2018-12-25T14:23:16.986Z,16.90
2018-12-25T14:25:43.182Z,17.00
2018-12-25T14:28:09.657Z,17.00
2018-12-25T14:30:35.864Z,17.00
2018-12-25T14:33:02.051Z,17.00
2018-12-25T14:35:28.259Z,17.00
2018-12-25T14:37:54.454Z,17.00
2018-12-25T14:40:21.426Z,17.10
2018-12-25T14:42:47.614Z,17.10
2018-12-25T14:45:13.843Z,17.10
2018-12-25T14:47:40.802Z,17.20
2018-12-25T14:50:07.772Z,17.20
2018-12-25T14:52:34.003Z,17.10
2018-12-25T14:55:01.183Z,17.20
2018-12-25T14:57:27.389Z,17.20
2018-12-25T14:59:53.593Z,17.20
2018-12-25T15:02:19.856Z,17.20
2018-12-25T15:04:46.570Z,17.30
2018-12-25T15:07:13.003Z,17.30
2018-12-25T15:09:39.422Z,17.30
2018-12-25T15:12:05.844Z,17.30
2018-12-25T15:14:32.287Z,17.40
2018-12-25T15:16:58.699Z,17.40
2018-12-25T15:19:26.560Z,17.40
2018-12-25T15:21:52.971Z,17.40
2018-12-25T15:24:19.234Z,17.40
2018-12-25T15:26:46.276Z,17.40
2018-12-25T15:29:13.357Z,17.40
2018-12-25T15:31:39.766Z,17.40
2018-12-25T15:34:06.223Z,17.50
2018-12-25T15:36:32.622Z,17.50
2018-12-25T15:39:00.523Z,17.50
2018-12-25T15:41:26.736Z,17.50
2018-12-25T15:43:53.165Z,17.50
2018-12-25T15:46:19.614Z,17.50
2018-12-25T15:48:46.053Z,17.50
2018-12-25T15:51:12.491Z,17.50
2018-12-25T15:53:38.873Z,17.50
2018-12-25T15:56:06.612Z,17.60
2018-12-25T15:58:32.976Z,17.60
2018-12-25T16:00:59.220Z,17.70
2018-12-25T16:03:25.424Z,17.60
2018-12-25T16:05:52.623Z,17.70
2018-12-25T16:08:18.136Z,17.70
2018-12-25T16:10:44.571Z,17.70
2018-12-25T16:13:10.974Z,17.70
2018-12-25T16:15:37.635Z,17.70
2018-12-25T16:18:04.044Z,17.80
2018-12-25T16:20:30.240Z,17.80
2018-12-25T16:22:56.477Z,17.80
2018-12-25T16:25:22.723Z,17.90
2018-12-25T16:27:49.155Z,17.90
2018-12-25T16:30:15.622Z,17.80
2018-12-25T16:32:42.022Z,17.80
2018-12-25T16:35:08.297Z,17.80
2018-12-25T16:37:34.691Z,17.80
2018-12-25T16:40:00.903Z,17.60
2018-12-25T16:42:27.172Z,17.50
2018-12-25T16:44:53.389Z,17.40
2018-12-25T16:47:19.583Z,17.30
2018-12-25T16:49:45.804Z,17.30
2018-12-25T16:52:12.028Z,17.20
2018-12-25T16:54:38.216Z,17.10
2018-12-25T16:57:04.414Z,17.10
2018-12-25T16:59:31.387Z,17.10
2018-12-25T17:01:57.575Z,17.10
2018-12-25T17:04:23.771Z,17.10
2018-12-25T17:06:49.984Z,17.10
2018-12-25T17:09:16.207Z,17.00
2018-12-25T17:11:42.423Z,17.00
2018-12-25T17:14:08.703Z,17.00
2018-12-25T17:16:34.956Z,16.90
2018-12-25T17:19:01.172Z,16.90
2018-12-25T17:21:28.135Z,16.90
2018-12-25T17:24:02.233Z,16.90
2018-12-25T17:26:21.326Z,16.90
2018-12-25T17:28:47.517Z,16.90
2018-12-25T17:31:13.733Z,16.90
2018-12-25T17:33:40.630Z,16.90
2018-12-25T17:36:06.838Z,16.80
2018-12-25T17:38:33.036Z,16.80
2018-12-25T17:40:59.316Z,16.80
2018-12-25T17:43:25.531Z,16.80
2018-12-25T17:45:51.750Z,16.80
2018-12-25T17:48:17.928Z,16.80
2018-12-25T17:50:44.680Z,16.80
2018-12-25T17:53:10.890Z,16.80
2018-12-25T17:55:37.300Z,16.80
2018-12-25T17:58:03.514Z,16.70
2018-12-25T18:00:29.727Z,16.60
2018-12-25T18:02:55.984Z,16.70
2018-12-25T18:05:22.176Z,16.60
2018-12-25T18:07:49.911Z,16.60
2018-12-25T18:10:16.307Z,16.60
2018-12-25T18:12:42.524Z,16.50
2018-12-25T18:15:08.737Z,16.50
2018-12-25T18:17:34.929Z,16.40
2018-12-25T18:20:01.223Z,16.40
2018-12-25T18:22:27.476Z,16.40
2018-12-25T18:24:53.671Z,16.30
2018-12-25T18:27:19.946Z,16.30
2018-12-25T18:29:46.132Z,16.30
2018-12-25T18:32:12.396Z,16.30
2018-12-25T18:34:38.592Z,16.30
2018-12-25T18:37:04.776Z,16.40
2018-12-25T18:39:30.996Z,16.40
2018-12-25T18:41:57.171Z,16.40
2018-12-25T18:44:24.135Z,16.50
2018-12-25T18:46:50.344Z,16.50
2018-12-25T18:49:16.540Z,16.50
2018-12-25T18:51:44.262Z,16.50
2018-12-25T18:54:10.530Z,16.50
2018-12-25T18:56:36.769Z,16.50
2018-12-25T18:59:02.972Z,16.50
2018-12-25T19:01:29.176Z,16.50
2018-12-25T19:03:55.582Z,16.50
2018-12-25T19:06:21.755Z,16.50
2018-12-25T19:08:48.004Z,16.50
2018-12-25T19:11:15.095Z,16.50
2018-12-25T19:13:41.289Z,16.50
2018-12-25T19:16:07.487Z,16.50
2018-12-25T19:18:33.700Z,16.50
2018-12-25T19:20:59.918Z,16.50
2018-12-25T19:23:26.107Z,16.50
2018-12-25T19:25:53.079Z,16.30
2018-12-25T19:28:19.283Z,16.30
2018-12-25T19:30:45.502Z,16.30
2018-12-25T19:33:11.707Z,16.40
2018-12-25T19:35:39.541Z,16.40
2018-12-25T19:38:05.684Z,16.40
2018-12-25T19:40:31.903Z,16.40
2018-12-25T19:42:58.080Z,16.30
2018-12-25T19:45:24.296Z,16.30
2018-12-25T19:47:50.530Z,16.30
2018-12-25T19:50:18.240Z,16.30
2018-12-25T19:52:44.463Z,16.30
2018-12-25T19:55:10.703Z,16.30
2018-12-25T19:57:36.923Z,16.30
2018-12-25T20:00:03.213Z,16.30
2018-12-25T20:02:29.403Z,16.30
2018-12-25T20:04:55.624Z,16.30
2018-12-25T20:07:21.854Z,16.30
2018-12-25T20:09:48.059Z,16.40
2018-12-25T20:12:14.259Z,16.30
2018-12-25T20:14:40.507Z,16.30
2018-12-25T20:17:06.710Z,16.30
2018-12-25T20:19:32.879Z,16.20
2018-12-25T20:21:59.077Z,16.20
2018-12-25T20:24:26.041Z,16.20
2018-12-25T20:26:52.248Z,16.20
2018-12-25T20:29:18.428Z,16.20
2018-12-25T20:31:44.626Z,16.20
2018-12-25T20:34:10.837Z,16.20
2018-12-25T20:36:37.814Z,16.20
2018-12-25T20:39:04.012Z,16.20
2018-12-25T20:41:30.203Z,16.20
2018-12-25T20:43:56.471Z,16.10
2018-12-25T20:46:22.651Z,16.10
2018-12-25T20:48:48.853Z,16.10
2018-12-25T20:51:15.049Z,16.10
2018-12-25T20:53:42.017Z,16.10
2018-12-25T20:56:08.256Z,16.00
2018-12-25T20:58:34.494Z,16.10
2018-12-25T21:01:00.693Z,16.00
2018-12-25T21:03:26.904Z,16.00
2018-12-25T21:05:53.162Z,16.00
2018-12-25T21:08:19.373Z,15.90
2018-12-25T21:10:45.566Z,15.90
2018-12-25T21:13:12.271Z,15.90
2018-12-25T21:15:38.666Z,16.00
2018-12-25T21:18:04.855Z,16.00
2018-12-25T21:20:31.039Z,15.90
2018-12-25T21:22:57.245Z,15.80
2018-12-25T21:25:24.199Z,15.80
2018-12-25T21:27:50.379Z,15.80
2018-12-25T21:30:16.611Z,15.90
2018-12-25T21:32:42.880Z,15.80
2018-12-25T21:35:09.106Z,15.80
2018-12-25T21:37:35.305Z,15.80
2018-12-25T21:40:01.565Z,15.90
2018-12-25T21:42:27.747Z,15.90
2018-12-25T21:44:53.936Z,15.90
2018-12-25T21:47:20.127Z,15.90
2018-12-25T21:49:47.349Z,15.90
2018-12-25T21:52:13.559Z,15.90
2018-12-25T21:54:39.782Z,15.90
2018-12-25T21:57:05.980Z,15.80
2018-12-25T21:59:32.415Z,15.80
2018-12-25T22:01:59.907Z,15.80
2018-12-25T22:04:26.115Z,15.80
2018-12-25T22:06:52.306Z,15.80
2018-12-25T22:09:18.502Z,15.80
2018-12-25T22:11:45.397Z,15.80
2018-12-25T22:14:10.935Z,15.70
2018-12-25T22:16:37.202Z,15.80
2018-12-25T22:19:03.420Z,15.80
2018-12-25T22:21:29.644Z,15.80
2018-12-25T22:23:55.873Z,15.80
2018-12-25T22:26:22.075Z,15.80
2018-12-25T22:28:48.275Z,15.70
2018-12-25T22:31:15.249Z,15.70
2018-12-25T22:33:41.436Z,15.70
2018-12-25T22:36:07.641Z,15.70
2018-12-25T22:38:33.920Z,15.70
2018-12-25T22:41:00.132Z,15.70
2018-12-25T22:43:26.561Z,15.80
2018-12-25T22:45:52.768Z,15.80
2018-12-25T22:48:19.027Z,15.80
2018-12-25T22:50:45.288Z,15.80
2018-12-25T22:53:12.045Z,15.70
2018-12-25T22:55:38.238Z,15.70
2018-12-25T22:58:04.457Z,15.70
2018-12-25T23:00:30.796Z,15.70
2018-12-25T23:02:57.014Z,15.70
2018-12-25T23:05:23.222Z,15.70
2018-12-25T23:07:49.424Z,15.60
2018-12-25T23:10:15.617Z,15.60
2018-12-25T23:12:41.855Z,15.60
2018-12-25T23:15:08.051Z,15.60
2018-12-25T23:17:35.044Z,15.70
2018-12-25T23:20:01.222Z,15.60
2018-12-25T23:22:27.406Z,15.70
2018-12-25T23:24:53.621Z,15.70
2018-12-25T23:27:19.879Z,15.70
2018-12-25T23:29:46.071Z,15.70
2018-12-25T23:32:12.274Z,15.70
2018-12-25T23:34:38.484Z,15.60
2018-12-25T23:37:05.455Z,15.60
2018-12-25T23:39:31.689Z,15.60
2018-12-25T23:41:59.451Z,15.60
2018-12-25T23:44:24.153Z,15.60
2018-12-25T23:46:50.336Z,15.60
2018-12-25T23:49:16.543Z,15.50
2018-12-25T23:51:42.710Z,15.50
2018-12-25T23:54:08.911Z,15.50
2018-12-25T23:56:35.874Z,15.60
2018-12-25T23:59:02.171Z,15.60
